createdAt,value
2023-02-18T00:00:40.766Z,3.50
2023-02-18T00:03:07.134Z,4.70
2023-02-18T00:05:33.501Z,4.27
2023-02-18T00:07:59.864Z,2.47
2023-02-18T00:10:26.178Z,3.13
2023-02-18T00:12:52.509Z,3.87
2023-02-18T00:15:18.835Z,6.20
2023-02-18T00:17:45.229Z,3.57
2023-02-18T00:20:11.818Z,3.30
2023-02-18T00:22:38.200Z,3.70
2023-02-18T00:25:04.639Z,3.43
2023-02-18T00:27:31.074Z,4.33
2023-02-18T00:29:58.063Z,4.03
2023-02-18T00:32:24.543Z,3.40
2023-02-18T00:34:50.959Z,4.20
2023-02-18T00:37:17.321Z,3.33
2023-02-18T00:39:44.225Z,3.67
2023-02-18T00:42:10.620Z,3.67
2023-02-18T00:44:36.998Z,5.53
2023-02-18T00:47:03.379Z,4.20
2023-02-18T00:49:30.037Z,3.20
2023-02-18T00:51:56.406Z,3.43
2023-02-18T00:54:22.753Z,3.50
2023-02-18T00:56:49.185Z,4.47
2023-02-18T00:59:15.619Z,4.20
2023-02-18T01:01:42.034Z,5.27
2023-02-18T01:04:08.598Z,6.60
2023-02-18T01:06:34.990Z,5.67
2023-02-18T01:09:01.401Z,4.20
2023-02-18T01:11:27.794Z,4.40
2023-02-18T01:13:54.197Z,5.93
2023-02-18T01:16:20.573Z,4.80
2023-02-18T01:18:46.994Z,5.73
2023-02-18T01:21:13.349Z,6.37
2023-02-18T01:23:40.611Z,6.60
2023-02-18T01:26:07.754Z,3.93
2023-02-18T01:28:34.425Z,4.97
2023-02-18T01:31:04.877Z,5.73
2023-02-18T01:33:31.449Z,6.75
2023-02-18T01:35:57.852Z,4.37
2023-02-18T01:38:24.193Z,4.37
2023-02-18T01:40:52.185Z,4.67
2023-02-18T01:43:19.265Z,4.43
2023-02-18T01:45:49.394Z,6.33
2023-02-18T01:48:19.869Z,3.10
2023-02-18T01:50:48.517Z,3.53
2023-02-18T01:53:16.119Z,5.13
2023-02-18T01:55:42.797Z,3.40
2023-02-18T01:58:09.506Z,4.70
2023-02-18T02:00:37.016Z,3.73
2023-02-18T02:03:03.504Z,6.47
2023-02-18T02:05:31.414Z,3.77
2023-02-18T02:07:58.406Z,7.43
2023-02-18T02:10:27.713Z,11.20
2023-02-18T02:12:54.019Z,4.10
2023-02-18T02:15:27.832Z,4.83
2023-02-18T02:17:59.954Z,9.63
2023-02-18T02:20:26.290Z,3.63
2023-02-18T02:22:55.671Z,4.00
2023-02-18T02:25:28.173Z,3.57
2023-02-18T02:28:15.517Z,4.47
2023-02-18T02:30:47.191Z,3.20
2023-02-18T02:33:19.667Z,4.43
2023-02-18T02:35:51.513Z,3.97
2023-02-18T02:38:25.260Z,4.57
2023-02-18T02:41:01.906Z,3.60
2023-02-18T02:43:33.974Z,6.87
2023-02-18T02:46:12.382Z,2.73
2023-02-18T02:48:44.845Z,4.13
2023-02-18T02:51:11.182Z,5.20
2023-02-18T02:53:40.153Z,3.20
2023-02-18T02:56:06.821Z,4.10
2023-02-18T02:58:33.466Z,4.80
2023-02-18T03:01:09.155Z,4.17
2023-02-18T03:03:35.519Z,4.03
2023-02-18T03:06:01.790Z,6.17
2023-02-18T03:08:37.041Z,4.27
2023-02-18T03:11:05.808Z,5.77
2023-02-18T03:13:32.348Z,7.57
2023-02-18T03:16:09.178Z,6.47
2023-02-18T03:18:56.013Z,6.63
2023-02-18T03:21:27.936Z,6.27
2023-02-18T03:23:59.877Z,4.77
2023-02-18T03:26:27.498Z,6.73
2023-02-18T03:28:55.640Z,11.00
2023-02-18T03:31:24.690Z,5.40
2023-02-18T03:33:55.297Z,6.93
2023-02-18T03:36:21.790Z,6.68
2023-02-18T03:38:51.217Z,5.27
2023-02-18T03:41:17.575Z,4.47
2023-02-18T03:43:55.190Z,4.53
2023-02-18T03:46:22.059Z,5.70
2023-02-18T03:48:48.478Z,5.07
2023-02-18T03:51:14.802Z,4.73
2023-02-18T03:53:41.176Z,5.37
2023-02-18T03:56:07.993Z,4.87
2023-02-18T03:58:34.551Z,5.70
2023-02-18T04:01:00.957Z,5.90
2023-02-18T04:03:27.385Z,6.20
2023-02-18T04:05:53.818Z,7.20
2023-02-18T04:08:20.191Z,5.63
2023-02-18T04:10:46.519Z,6.93
2023-02-18T04:13:32.950Z,4.73
2023-02-18T04:16:02.728Z,8.43
2023-02-18T04:18:49.006Z,7.57
2023-02-18T04:21:25.958Z,8.90
2023-02-18T04:23:52.375Z,6.20
2023-02-18T04:26:18.801Z,7.37
2023-02-18T04:28:45.161Z,5.03
2023-02-18T04:31:11.763Z,4.87
2023-02-18T04:33:38.173Z,7.70
2023-02-18T04:36:04.699Z,5.30
2023-02-18T04:38:31.106Z,6.47
2023-02-18T04:40:57.450Z,5.57
2023-02-18T04:43:23.773Z,4.40
2023-02-18T04:45:50.185Z,4.23
2023-02-18T04:48:16.605Z,5.27
2023-02-18T04:50:43.825Z,5.93
2023-02-18T04:53:10.161Z,5.90
2023-02-18T04:55:36.496Z,6.53
2023-02-18T04:58:02.866Z,7.30
2023-02-18T05:00:29.251Z,5.93
2023-02-18T05:02:55.652Z,4.23
2023-02-18T05:05:22.102Z,4.77
2023-02-18T05:07:48.723Z,6.03
2023-02-18T05:10:16.189Z,9.57
2023-02-18T05:12:42.576Z,7.23
2023-02-18T05:15:09.429Z,8.57
2023-02-18T05:17:36.045Z,5.87
2023-02-18T05:20:02.877Z,8.30
2023-02-18T05:22:29.256Z,9.00
2023-02-18T05:24:55.612Z,7.07
2023-02-18T05:27:21.952Z,6.20
2023-02-18T05:29:48.332Z,6.07
2023-02-18T05:32:14.690Z,8.47
2023-02-18T05:34:41.133Z,5.70
2023-02-18T05:37:07.498Z,6.17
2023-02-18T05:39:33.837Z,4.13
2023-02-18T05:42:00.197Z,4.93
2023-02-18T05:44:32.636Z,7.30
2023-02-18T05:47:00.789Z,9.97
2023-02-18T05:49:27.610Z,4.97
2023-02-18T05:51:54.054Z,5.07
2023-02-18T05:54:20.408Z,6.63
2023-02-18T05:56:46.795Z,5.67
2023-02-18T05:59:13.490Z,7.77
2023-02-18T06:01:40.217Z,5.67
2023-02-18T06:04:06.756Z,12.53
2023-02-18T06:06:33.576Z,6.73
2023-02-18T06:09:00.094Z,5.97
2023-02-18T06:11:26.577Z,5.13
2023-02-18T06:13:52.933Z,6.23
2023-02-18T06:16:19.398Z,9.30
2023-02-18T06:18:45.909Z,7.37
2023-02-18T06:21:12.262Z,8.67
2023-02-18T06:23:38.565Z,10.93
2023-02-18T06:26:05.246Z,10.80
2023-02-18T06:28:31.616Z,13.07
2023-02-18T06:30:58.034Z,11.03
2023-02-18T06:33:24.446Z,8.80
2023-02-18T06:35:56.269Z,7.03
2023-02-18T06:38:23.047Z,8.45
2023-02-18T06:40:49.354Z,7.70
2023-02-18T06:43:15.834Z,6.83
2023-02-18T06:45:42.334Z,13.53
2023-02-18T06:48:08.642Z,9.53
2023-02-18T06:50:35.053Z,6.97
2023-02-18T06:53:01.506Z,7.97
2023-02-18T06:55:28.003Z,7.10
2023-02-18T06:57:54.440Z,7.40
2023-02-18T07:00:20.977Z,10.67
2023-02-18T07:02:47.319Z,13.13
2023-02-18T07:05:13.908Z,9.80
2023-02-18T07:07:40.249Z,10.30
2023-02-18T07:10:07.128Z,9.40
2023-02-18T07:12:33.677Z,6.93
2023-02-18T07:15:00.051Z,9.43
2023-02-18T07:17:26.376Z,8.30
2023-02-18T07:19:52.738Z,9.30
2023-02-18T07:22:19.206Z,10.10
2023-02-18T07:24:45.611Z,9.63
2023-02-18T07:27:11.999Z,9.43
2023-02-18T07:29:38.390Z,13.27
2023-02-18T07:32:04.916Z,9.03
2023-02-18T07:34:31.392Z,11.30
2023-02-18T07:36:57.780Z,17.47
2023-02-18T07:39:24.092Z,15.37
2023-02-18T07:41:50.587Z,11.77
2023-02-18T07:44:16.944Z,25.40
2023-02-18T07:46:43.270Z,30.57
2023-02-18T07:49:09.672Z,25.87
2023-02-18T07:51:37.689Z,21.37
2023-02-18T07:54:04.125Z,10.77
2023-02-18T07:56:30.483Z,20.90
2023-02-18T07:58:56.882Z,15.33
2023-02-18T08:01:23.210Z,19.73
2023-02-18T08:03:49.590Z,11.50
2023-02-18T08:06:20.463Z,12.40
2023-02-18T08:08:46.884Z,13.00
2023-02-18T08:11:18.820Z,11.37
2023-02-18T08:13:47.233Z,28.20
2023-02-18T08:16:13.927Z,15.00
2023-02-18T08:18:40.352Z,11.40
2023-02-18T08:21:06.948Z,10.70
2023-02-18T08:23:33.397Z,8.57
2023-02-18T08:25:59.753Z,9.13
2023-02-18T08:28:26.161Z,8.00
2023-02-18T08:30:53.691Z,8.77
2023-02-18T08:33:20.836Z,9.40
2023-02-18T08:35:48.016Z,10.77
2023-02-18T08:38:14.431Z,9.80
2023-02-18T08:40:43.746Z,9.13
2023-02-18T08:43:10.401Z,11.63
2023-02-18T08:45:38.082Z,8.37
2023-02-18T08:48:18.374Z,9.30
2023-02-18T08:50:46.757Z,10.83
2023-02-18T08:53:13.116Z,9.13
2023-02-18T08:55:40.123Z,15.68
2023-02-18T08:58:06.881Z,9.48
2023-02-18T09:00:33.280Z,10.80
2023-02-18T09:03:00.000Z,11.25
2023-02-18T09:05:26.411Z,10.52
2023-02-18T09:07:52.762Z,11.10
2023-02-18T09:10:19.193Z,15.65
2023-02-18T09:12:45.594Z,11.07
2023-02-18T09:15:12.172Z,15.38
2023-02-18T09:17:38.614Z,9.45
2023-02-18T09:20:06.022Z,8.07
2023-02-18T09:22:32.803Z,10.45
2023-02-18T09:24:59.224Z,7.57
2023-02-18T09:27:25.571Z,7.88
2023-02-18T09:29:52.039Z,5.70
2023-02-18T09:32:32.623Z,5.63
2023-02-18T09:35:00.641Z,6.30
2023-02-18T09:37:27.029Z,4.53
2023-02-18T09:39:53.453Z,4.45
2023-02-18T09:42:23.774Z,5.88
2023-02-18T09:44:55.256Z,4.30
2023-02-18T09:47:26.067Z,4.45
2023-02-18T09:49:58.137Z,4.40
2023-02-18T09:52:27.959Z,3.75
2023-02-18T09:54:54.342Z,6.97
2023-02-18T09:57:35.206Z,4.40
2023-02-18T10:00:05.085Z,3.38
2023-02-18T10:02:31.792Z,4.65
2023-02-18T10:04:58.563Z,3.70
2023-02-18T10:07:29.818Z,3.85
2023-02-18T10:12:24.318Z,5.18
2023-02-18T10:14:55.270Z,5.15
2023-02-18T10:17:23.403Z,5.00
2023-02-18T10:19:51.139Z,4.45
2023-02-18T10:22:18.191Z,3.28
2023-02-18T10:24:55.913Z,4.35
2023-02-18T10:27:33.573Z,4.45
2023-02-18T10:30:03.130Z,6.80
2023-02-18T10:32:41.088Z,3.92
2023-02-18T10:35:07.413Z,8.52
2023-02-18T10:37:46.081Z,6.72
2023-02-18T10:40:17.053Z,4.28
2023-02-18T10:42:49.653Z,5.78
2023-02-18T10:45:22.557Z,3.97
2023-02-18T10:47:48.985Z,4.15
2023-02-18T10:50:34.789Z,3.75
2023-02-18T10:53:12.409Z,5.32
2023-02-18T10:55:41.043Z,5.45
2023-02-18T10:58:25.821Z,8.30
2023-02-18T11:00:52.447Z,4.78
2023-02-18T11:03:20.380Z,5.10
2023-02-18T11:05:47.876Z,5.32
2023-02-18T11:08:16.824Z,3.72
2023-02-18T11:10:44.932Z,4.70
2023-02-18T11:13:13.300Z,4.65
2023-02-18T11:15:53.341Z,6.03
2023-02-18T11:18:25.825Z,5.40
2023-02-18T11:20:56.884Z,6.00
2023-02-18T11:23:24.119Z,5.90
2023-02-18T11:26:00.294Z,6.28
2023-02-18T11:28:35.494Z,5.85
2023-02-18T11:31:02.628Z,6.55
2023-02-18T11:33:29.045Z,7.60
2023-02-18T11:35:56.389Z,4.50
2023-02-18T11:38:24.968Z,4.72
2023-02-18T11:41:02.104Z,5.22
2023-02-18T11:43:29.980Z,5.45
2023-02-18T11:46:10.388Z,7.07
2023-02-18T11:48:36.876Z,8.07
2023-02-18T11:51:06.853Z,4.45
2023-02-18T11:53:35.317Z,5.28
2023-02-18T11:56:04.147Z,5.90
2023-02-18T11:58:41.355Z,6.20
2023-02-18T12:01:14.391Z,7.35
2023-02-18T12:03:48.397Z,16.15
2023-02-18T12:06:26.686Z,6.10
2023-02-18T12:08:58.020Z,12.52
2023-02-18T12:11:30.841Z,5.25
2023-02-18T12:13:58.437Z,8.93
2023-02-18T12:16:26.795Z,5.18
2023-02-18T12:18:57.770Z,7.45
2023-02-18T12:21:36.329Z,6.78
2023-02-18T12:24:04.269Z,6.50
2023-02-18T12:26:39.586Z,6.45
2023-02-18T12:29:18.389Z,7.80
2023-02-18T12:32:03.773Z,7.25
2023-02-18T12:34:30.169Z,4.82
2023-02-18T12:37:02.554Z,6.28
2023-02-18T12:39:29.959Z,6.90
2023-02-18T12:42:05.041Z,5.50
2023-02-18T12:44:35.021Z,4.50
2023-02-18T12:47:18.334Z,7.28
2023-02-18T12:50:12.720Z,7.55
2023-02-18T12:52:49.257Z,5.18
2023-02-18T12:55:36.070Z,5.22
2023-02-18T12:58:02.595Z,8.05
2023-02-18T13:00:35.693Z,5.05
2023-02-18T13:03:02.112Z,5.55
2023-02-18T13:05:38.046Z,5.65
2023-02-18T13:08:04.414Z,5.40
2023-02-18T13:10:49.808Z,5.15
2023-02-18T13:13:20.214Z,4.78
2023-02-18T13:15:51.159Z,4.32
2023-02-18T13:18:25.673Z,4.18
2023-02-18T13:20:54.967Z,3.55
2023-02-18T13:23:23.499Z,4.28
2023-02-18T13:25:56.945Z,4.20
2023-02-18T13:28:33.467Z,6.05
2023-02-18T13:31:18.365Z,3.92
2023-02-18T13:33:50.633Z,6.72
2023-02-18T13:36:25.596Z,5.55
2023-02-18T13:39:04.479Z,5.22
2023-02-18T13:41:35.130Z,4.45
2023-02-18T13:44:01.576Z,5.20
2023-02-18T13:46:28.366Z,4.18
2023-02-18T13:49:04.266Z,6.97
2023-02-18T13:51:32.382Z,6.82
2023-02-18T13:54:04.234Z,6.15
2023-02-18T13:56:35.149Z,4.15
2023-02-18T13:59:07.572Z,4.22
2023-02-18T14:01:41.796Z,5.15
2023-02-18T14:04:26.806Z,5.20
2023-02-18T14:07:12.890Z,3.75
2023-02-18T14:09:41.529Z,5.65
2023-02-18T14:12:26.696Z,5.25
2023-02-18T14:14:53.346Z,4.47
2023-02-18T14:17:19.703Z,5.28
2023-02-18T14:19:55.734Z,4.45
2023-02-18T14:22:24.296Z,5.53
2023-02-18T14:24:56.025Z,7.25
2023-02-18T14:27:23.916Z,6.30
2023-02-18T14:29:52.153Z,10.13
2023-02-18T14:32:19.391Z,5.75
2023-02-18T14:34:52.681Z,5.13
2023-02-18T14:37:25.781Z,5.70
2023-02-18T14:39:54.842Z,5.38
2023-02-18T14:42:21.317Z,7.35
2023-02-18T14:45:03.129Z,4.30
2023-02-18T14:47:35.758Z,4.50
2023-02-18T14:50:03.695Z,6.55
2023-02-18T14:52:32.082Z,4.30
2023-02-18T14:55:00.277Z,5.20
2023-02-18T14:57:41.091Z,6.03
2023-02-18T15:00:13.898Z,5.18
2023-02-18T15:02:40.280Z,4.60
2023-02-18T15:05:15.232Z,5.25
2023-02-18T15:07:41.896Z,4.45
2023-02-18T15:10:15.842Z,5.95
2023-02-18T15:12:42.323Z,5.05
2023-02-18T15:15:12.619Z,3.45
2023-02-18T15:17:44.399Z,4.72
2023-02-18T15:20:12.471Z,5.07
2023-02-18T15:22:39.002Z,4.93
2023-02-18T15:25:05.525Z,5.75
2023-02-18T15:27:34.237Z,3.45
2023-02-18T15:30:16.883Z,4.53
2023-02-18T15:32:51.121Z,5.90
2023-02-18T15:35:18.586Z,5.68
2023-02-18T15:37:45.925Z,5.03
2023-02-18T15:40:16.009Z,7.05
2023-02-18T15:42:42.597Z,3.78
2023-02-18T15:45:17.858Z,8.90
2023-02-18T15:47:46.143Z,4.88
2023-02-18T15:50:23.549Z,4.78
2023-02-18T15:52:50.639Z,8.27
2023-02-18T15:55:38.321Z,6.93
2023-02-18T15:58:07.324Z,22.88
2023-02-18T16:00:36.775Z,15.20
2023-02-18T16:03:12.604Z,15.20
2023-02-18T16:05:39.572Z,16.33
2023-02-18T16:08:12.518Z,16.20
2023-02-18T16:11:08.230Z,13.45
2023-02-18T16:13:36.778Z,10.55
2023-02-18T16:16:03.333Z,12.57
2023-02-18T16:18:29.927Z,10.20
2023-02-18T16:21:01.735Z,12.50
2023-02-18T16:23:35.937Z,10.70
2023-02-18T16:26:12.695Z,10.85
2023-02-18T16:28:41.842Z,6.72
2023-02-18T16:31:08.264Z,9.63
2023-02-18T16:33:34.672Z,9.75
2023-02-18T16:36:01.030Z,13.63
2023-02-18T16:38:27.472Z,13.52
2023-02-18T16:40:54.331Z,9.45
2023-02-18T16:43:26.878Z,11.23
2023-02-18T16:45:55.645Z,11.70
2023-02-18T16:48:22.140Z,12.30
2023-02-18T16:50:49.501Z,9.27
2023-02-18T16:53:15.958Z,8.35
2023-02-18T16:55:42.383Z,8.50
2023-02-18T16:58:08.821Z,14.13
2023-02-18T17:00:35.210Z,6.20
2023-02-18T17:03:01.706Z,8.65
2023-02-18T17:05:30.392Z,7.88
2023-02-18T17:08:05.040Z,7.53
2023-02-18T17:10:31.382Z,9.70
2023-02-18T17:12:57.829Z,9.98
2023-02-18T17:15:29.868Z,12.35
2023-02-18T17:17:59.139Z,11.82
2023-02-18T17:20:30.861Z,13.93
2023-02-18T17:22:58.441Z,10.38
2023-02-18T17:25:28.653Z,9.38
2023-02-18T17:27:55.337Z,10.48
2023-02-18T17:30:21.729Z,13.25
2023-02-18T17:32:48.616Z,8.98
2023-02-18T17:35:19.337Z,10.90
2023-02-18T17:37:46.135Z,8.20
2023-02-18T17:40:20.175Z,9.98
2023-02-18T17:42:46.954Z,8.80
2023-02-18T17:45:13.359Z,9.50
2023-02-18T17:47:39.801Z,7.88
2023-02-18T17:50:06.464Z,11.23
2023-02-18T17:52:32.844Z,7.93
2023-02-18T17:54:59.168Z,8.13
2023-02-18T17:57:25.898Z,6.70
2023-02-18T17:59:52.280Z,7.50
2023-02-18T18:02:26.301Z,7.15
2023-02-18T18:04:52.725Z,8.82
2023-02-18T18:07:19.031Z,7.05
2023-02-18T18:09:45.361Z,6.70
2023-02-18T18:12:15.332Z,8.35
2023-02-18T18:14:41.729Z,9.77
2023-02-18T18:17:12.400Z,8.73
2023-02-18T18:19:39.510Z,10.90
2023-02-18T18:22:06.686Z,10.88
2023-02-18T18:24:33.123Z,13.75
2023-02-18T18:26:59.921Z,8.95
2023-02-18T18:29:26.318Z,11.13
2023-02-18T18:31:52.727Z,10.77
2023-02-18T18:34:20.985Z,8.10
2023-02-18T18:36:47.346Z,9.02
2023-02-18T18:39:13.682Z,13.25
2023-02-18T18:41:40.140Z,9.80
2023-02-18T18:44:06.512Z,9.10
2023-02-18T18:46:33.014Z,11.25
2023-02-18T18:48:59.514Z,9.55
2023-02-18T18:51:28.332Z,10.60
2023-02-18T18:53:54.668Z,8.23
2023-02-18T18:56:21.921Z,9.27
2023-02-18T18:58:49.047Z,10.18
2023-02-18T19:01:17.116Z,9.57
2023-02-18T19:03:44.707Z,8.13
2023-02-18T19:06:11.726Z,8.00
2023-02-18T19:08:38.097Z,8.45
2023-02-18T19:11:07.762Z,7.13
2023-02-18T19:13:36.027Z,8.27
2023-02-18T19:16:14.781Z,6.25
2023-02-18T19:18:41.223Z,5.18
2023-02-18T19:21:07.895Z,6.10
2023-02-18T19:23:34.784Z,6.57
2023-02-18T19:26:01.214Z,7.72
2023-02-18T19:28:28.019Z,6.70
2023-02-18T19:30:54.668Z,10.23
2023-02-18T19:33:21.110Z,11.27
2023-02-18T19:35:47.620Z,9.10
2023-02-18T19:38:15.140Z,10.70
2023-02-18T19:40:42.365Z,11.35
2023-02-18T19:43:09.337Z,9.05
2023-02-18T19:45:40.746Z,8.77
2023-02-18T19:48:08.934Z,9.15
2023-02-18T19:50:35.303Z,7.32
2023-02-18T19:53:01.984Z,8.73
2023-02-18T19:55:28.461Z,11.75
2023-02-18T19:57:54.758Z,9.35
2023-02-18T20:00:22.436Z,10.45
2023-02-18T20:02:49.426Z,7.07
2023-02-18T20:05:16.377Z,9.30
2023-02-18T20:07:42.718Z,7.40
2023-02-18T20:10:11.337Z,6.33
2023-02-18T20:12:37.687Z,8.45
2023-02-18T20:15:04.165Z,8.13
2023-02-18T20:17:30.593Z,6.55
2023-02-18T20:19:56.921Z,8.77
2023-02-18T20:22:23.393Z,8.73
2023-02-18T20:24:50.305Z,9.63
2023-02-18T20:27:16.671Z,9.60
2023-02-18T20:29:43.040Z,8.97
2023-02-18T20:32:09.683Z,11.47
2023-02-18T20:34:36.148Z,10.67
2023-02-18T20:37:02.533Z,9.97
2023-02-18T20:39:28.950Z,8.25
2023-02-18T20:41:55.824Z,8.50
2023-02-18T20:44:24.242Z,7.75
2023-02-18T20:46:50.884Z,9.23
2023-02-18T20:49:18.508Z,9.15
2023-02-18T20:51:44.890Z,9.50
2023-02-18T20:54:15.521Z,10.50
2023-02-18T20:56:42.830Z,9.18
2023-02-18T20:59:13.192Z,11.37
2023-02-18T21:01:41.156Z,13.07
2023-02-18T21:04:07.762Z,9.57
2023-02-18T21:06:34.148Z,11.90
2023-02-18T21:09:00.526Z,11.03
2023-02-18T21:11:27.203Z,12.50
2023-02-18T21:13:54.578Z,8.40
2023-02-18T21:16:21.963Z,10.07
2023-02-18T21:18:48.431Z,8.83
2023-02-18T21:21:15.022Z,10.63
2023-02-18T21:23:41.461Z,10.00
2023-02-18T21:26:09.497Z,9.93
2023-02-18T21:28:35.918Z,9.40
2023-02-18T21:31:02.527Z,11.83
2023-02-18T21:33:29.101Z,8.43
2023-02-18T21:35:55.536Z,9.33
2023-02-18T21:38:22.042Z,9.73
2023-02-18T21:40:48.449Z,10.33
2023-02-18T21:43:14.950Z,13.23
2023-02-18T21:45:41.410Z,12.37
2023-02-18T21:48:26.459Z,15.30
2023-02-18T21:50:52.832Z,15.10
2023-02-18T21:53:19.213Z,12.03
2023-02-18T21:55:55.297Z,12.97
2023-02-18T21:58:28.533Z,13.70
2023-02-18T22:00:58.263Z,10.50
2023-02-18T22:03:24.826Z,9.53
2023-02-18T22:05:51.303Z,10.40
2023-02-18T22:08:17.669Z,11.57
2023-02-18T22:10:44.017Z,15.23
2023-02-18T22:13:10.350Z,13.57
2023-02-18T22:15:36.657Z,14.90
2023-02-18T22:18:03.050Z,11.40
2023-02-18T22:20:29.465Z,11.70
2023-02-18T22:22:55.769Z,14.60
2023-02-18T22:25:22.091Z,15.33
2023-02-18T22:27:48.411Z,12.20
2023-02-18T22:30:15.359Z,12.27
2023-02-18T22:32:41.734Z,14.30
2023-02-18T22:35:08.185Z,15.50
2023-02-18T22:37:35.037Z,10.30
2023-02-18T22:40:01.359Z,13.33
2023-02-18T22:42:27.744Z,13.57
2023-02-18T22:44:54.080Z,11.10
2023-02-18T22:47:20.447Z,10.20
2023-02-18T22:49:46.786Z,11.37
2023-02-18T22:52:13.092Z,12.53
2023-02-18T22:54:39.519Z,10.47
2023-02-18T22:57:05.896Z,10.83
2023-02-18T22:59:32.381Z,11.40
2023-02-18T23:01:58.746Z,10.87
2023-02-18T23:04:25.102Z,10.30
2023-02-18T23:06:51.512Z,14.10
2023-02-18T23:09:22.364Z,10.20
2023-02-18T23:11:49.295Z,9.20
2023-02-18T23:14:18.741Z,10.60
2023-02-18T23:17:04.649Z,11.23
2023-02-18T23:19:31.748Z,9.50
2023-02-18T23:21:58.406Z,10.80
2023-02-18T23:24:24.806Z,10.30
2023-02-18T23:26:51.319Z,10.17
2023-02-18T23:29:17.801Z,11.43
2023-02-18T23:31:44.265Z,10.40
2023-02-18T23:34:14.577Z,10.77
2023-02-18T23:36:40.982Z,10.20
2023-02-18T23:39:08.465Z,12.50
2023-02-18T23:41:35.683Z,10.47
2023-02-18T23:44:03.621Z,9.00
2023-02-18T23:46:29.967Z,12.17
2023-02-18T23:48:56.329Z,12.67
2023-02-18T23:51:23.282Z,11.53
2023-02-18T23:53:49.940Z,11.90
2023-02-18T23:56:17.898Z,11.33
2023-02-18T23:58:45.894Z,11.07
